createdAt,value
2022-11-13T00:02:27.917Z,11.10
2022-11-13T00:05:14.154Z,11.15
2022-11-13T00:07:59.890Z,11.05
2022-11-13T00:10:45.806Z,11.08
2022-11-13T00:13:32.038Z,11.08
2022-11-13T00:16:20.502Z,11.07
2022-11-13T00:19:06.708Z,11.22
2022-11-13T00:21:52.877Z,11.27
2022-11-13T00:24:38.902Z,11.42
2022-11-13T00:27:27.472Z,11.58
2022-11-13T00:30:19.031Z,11.85
2022-11-13T00:33:05.808Z,12.30
2022-11-13T00:35:51.790Z,12.43
2022-11-13T00:38:37.684Z,12.51
2022-11-13T00:41:24.212Z,12.54
2022-11-13T00:44:10.245Z,12.61
2022-11-13T00:46:55.955Z,12.87
2022-11-13T00:49:41.780Z,13.34
2022-11-13T00:52:27.846Z,13.62
2022-11-13T00:55:16.119Z,13.77
2022-11-13T00:58:02.716Z,13.98
2022-11-13T01:00:49.210Z,14.11
2022-11-13T01:03:36.975Z,14.12
2022-11-13T01:06:25.580Z,14.10
2022-11-13T01:09:11.865Z,14.23
2022-11-13T01:11:57.903Z,14.29
2022-11-13T01:14:44.079Z,14.28
2022-11-13T01:17:31.006Z,14.18
2022-11-13T01:20:17.692Z,14.26
2022-11-13T01:23:03.928Z,14.14
2022-11-13T01:25:50.348Z,14.14
2022-11-13T01:28:36.994Z,14.26
2022-11-13T01:31:26.902Z,14.25
2022-11-13T01:34:12.971Z,14.29
2022-11-13T01:36:59.056Z,14.20
2022-11-13T01:39:44.732Z,14.22
2022-11-13T01:42:33.550Z,14.31
2022-11-13T01:46:05.029Z,14.42
2022-11-13T01:49:08.169Z,14.26
2022-11-13T01:52:03.238Z,14.18
2022-11-13T01:54:53.600Z,14.12
2022-11-13T01:57:41.077Z,14.09
2022-11-13T02:00:27.136Z,14.08
2022-11-13T02:03:13.100Z,14.04
2022-11-13T02:05:59.046Z,14.07
2022-11-13T02:08:45.614Z,14.22
2022-11-13T02:11:31.591Z,14.27
2022-11-13T02:14:19.429Z,14.30
2022-11-13T02:21:15.114Z,14.32
2022-11-13T02:24:32.999Z,14.31
2022-11-13T02:27:38.042Z,14.37
2022-11-13T02:30:30.018Z,14.35
2022-11-13T02:33:33.888Z,14.36
2022-11-13T02:36:24.165Z,14.23
2022-11-13T02:39:12.827Z,14.21
2022-11-13T02:41:59.400Z,14.25
2022-11-13T02:44:45.355Z,14.22
2022-11-13T02:47:31.595Z,14.13
2022-11-13T02:50:18.396Z,14.26
2022-11-13T02:53:05.605Z,14.21
2022-11-13T02:55:51.351Z,14.19
2022-11-13T02:58:37.103Z,14.26
2022-11-13T03:01:22.837Z,14.33
2022-11-13T03:04:09.498Z,14.30
2022-11-13T03:06:55.871Z,14.21
2022-11-13T03:09:42.476Z,14.12
2022-11-13T03:12:28.352Z,14.14
2022-11-13T03:15:14.149Z,13.92
2022-11-13T03:18:04.312Z,13.86
2022-11-13T03:20:53.968Z,13.87
2022-11-13T03:23:41.801Z,13.97
2022-11-13T03:26:28.413Z,14.04
2022-11-13T03:29:15.399Z,14.13
2022-11-13T03:32:03.136Z,13.99
2022-11-13T03:34:48.945Z,13.95
2022-11-13T03:37:34.800Z,13.86
2022-11-13T03:40:20.460Z,13.96
2022-11-13T03:43:06.169Z,13.98
2022-11-13T03:45:52.039Z,13.80
2022-11-13T03:48:37.802Z,13.74
2022-11-13T03:51:23.774Z,13.66
2022-11-13T03:54:09.728Z,13.52
2022-11-13T03:56:55.904Z,13.51
2022-11-13T03:59:41.824Z,13.42
2022-11-13T04:02:27.750Z,13.25
2022-11-13T04:05:14.792Z,13.25
2022-11-13T04:08:03.866Z,13.31
2022-11-13T04:10:49.566Z,13.19
2022-11-13T04:13:35.273Z,13.21
2022-11-13T04:16:20.997Z,13.24
2022-11-13T04:19:06.577Z,13.35
2022-11-13T04:21:52.614Z,13.22
2022-11-13T04:24:41.637Z,13.17
2022-11-13T04:27:27.558Z,13.08
2022-11-13T04:30:13.381Z,12.97
2022-11-13T04:32:59.282Z,12.88
2022-11-13T04:35:45.983Z,12.80
2022-11-13T04:38:31.973Z,12.63
2022-11-13T04:41:36.196Z,12.58
2022-11-13T04:44:22.065Z,12.58
2022-11-13T04:47:08.591Z,12.47
2022-11-13T04:49:54.504Z,12.39
2022-11-13T04:52:40.353Z,12.29
2022-11-13T04:55:26.142Z,12.22
2022-11-13T04:58:12.131Z,12.15
2022-11-13T05:00:57.868Z,12.06
2022-11-13T05:03:43.575Z,12.03
2022-11-13T05:06:29.595Z,11.97
2022-11-13T05:09:16.211Z,11.90
2022-11-13T05:12:02.424Z,11.92
2022-11-13T05:14:48.253Z,11.91
2022-11-13T05:20:39.239Z,11.92
2022-11-13T05:23:29.947Z,11.82
2022-11-13T05:26:16.877Z,11.84
2022-11-13T05:29:02.829Z,11.78
2022-11-13T05:31:48.965Z,11.70
2022-11-13T05:34:34.813Z,11.61
2022-11-13T05:37:20.757Z,11.70
2022-11-13T05:40:07.547Z,11.78
2022-11-13T05:42:54.648Z,11.98
2022-11-13T05:45:40.500Z,12.07
2022-11-13T05:48:26.808Z,12.08
2022-11-13T05:51:15.588Z,12.26
2022-11-13T05:54:02.013Z,12.21
2022-11-13T05:56:50.611Z,12.09
2022-11-13T05:59:36.498Z,12.03
2022-11-13T06:02:22.519Z,11.97
2022-11-13T06:05:08.640Z,12.01
2022-11-13T06:07:54.488Z,12.03
2022-11-13T06:10:40.158Z,12.08
2022-11-13T06:13:25.926Z,12.13
2022-11-13T06:16:17.307Z,12.35
2022-11-13T06:19:04.899Z,12.38
2022-11-13T06:21:50.660Z,12.33
2022-11-13T06:24:36.272Z,12.37
2022-11-13T06:27:22.142Z,12.23
2022-11-13T06:30:08.341Z,12.21
2022-11-13T06:32:54.643Z,12.36
2022-11-13T06:35:40.748Z,12.37
2022-11-13T06:38:26.575Z,12.27
2022-11-13T06:41:16.170Z,12.25
2022-11-13T06:44:03.363Z,12.24
2022-11-13T06:46:49.598Z,12.17
2022-11-13T06:49:35.550Z,12.18
2022-11-13T06:52:21.637Z,12.16
2022-11-13T06:55:07.395Z,12.25
2022-11-13T06:57:54.648Z,12.33
2022-11-13T07:00:42.095Z,12.38
2022-11-13T07:03:28.081Z,12.36
2022-11-13T07:06:18.003Z,12.36
2022-11-13T07:09:04.001Z,12.34
2022-11-13T07:11:49.673Z,12.44
2022-11-13T07:14:35.292Z,12.46
2022-11-13T07:17:20.981Z,12.53
2022-11-13T07:20:08.552Z,12.58
2022-11-13T07:22:58.725Z,12.55
2022-11-13T07:25:44.709Z,12.59
2022-11-13T07:28:30.997Z,12.65
2022-11-13T07:31:18.306Z,12.69
2022-11-13T07:34:04.108Z,12.78
2022-11-13T07:36:50.055Z,12.86
2022-11-13T07:39:35.631Z,12.88
2022-11-13T07:42:21.512Z,13.03
2022-11-13T07:45:07.513Z,13.12
2022-11-13T07:47:58.501Z,13.11
2022-11-13T07:50:44.481Z,13.23
2022-11-13T07:53:30.437Z,13.34
2022-11-13T07:56:21.766Z,13.47
2022-11-13T07:59:08.827Z,13.39
2022-11-13T08:01:54.745Z,13.38
2022-11-13T08:04:40.560Z,13.42
2022-11-13T08:07:26.194Z,13.40
2022-11-13T08:10:12.444Z,13.48
2022-11-13T08:13:03.668Z,13.55
2022-11-13T08:15:49.288Z,13.57
2022-11-13T08:18:35.810Z,13.67
2022-11-13T08:21:22.046Z,13.73
2022-11-13T08:24:10.072Z,13.80
2022-11-13T08:26:56.537Z,14.24
2022-11-13T08:29:42.623Z,15.59
2022-11-13T08:32:28.318Z,16.58
2022-11-13T08:35:18.919Z,15.92
2022-11-13T08:38:09.014Z,15.19
2022-11-13T08:41:04.383Z,14.96
2022-11-13T08:43:53.234Z,14.40
2022-11-13T08:46:38.972Z,14.54
2022-11-13T08:49:24.891Z,14.26
2022-11-13T08:52:10.885Z,14.35
2022-11-13T08:54:56.637Z,14.32
2022-11-13T08:57:42.833Z,14.19
2022-11-13T09:00:30.164Z,14.17
2022-11-13T09:03:16.121Z,14.27
2022-11-13T09:06:06.422Z,14.36
2022-11-13T09:08:52.074Z,14.36
2022-11-13T09:11:38.171Z,14.57
2022-11-13T09:14:25.146Z,14.56
2022-11-13T09:17:11.282Z,14.51
2022-11-13T09:20:02.170Z,14.45
2022-11-13T09:22:56.745Z,14.41
2022-11-13T09:25:42.560Z,14.30
2022-11-13T09:28:28.440Z,14.27
2022-11-13T09:31:14.753Z,14.24
2022-11-13T09:34:00.508Z,14.37
2022-11-13T09:36:46.242Z,14.47
2022-11-13T09:39:32.748Z,14.52
2022-11-13T09:42:26.965Z,14.55
2022-11-13T09:45:15.547Z,14.63
2022-11-13T09:48:22.803Z,14.71
2022-11-13T09:51:18.317Z,14.69
2022-11-13T09:54:07.177Z,14.66
2022-11-13T09:57:20.499Z,14.69
2022-11-13T10:00:12.660Z,14.69
2022-11-13T10:04:00.651Z,14.68
2022-11-13T10:06:43.429Z,14.76
2022-11-13T10:10:13.589Z,14.67
2022-11-13T10:13:00.701Z,14.75
2022-11-13T10:15:51.165Z,14.80
2022-11-13T10:18:38.368Z,14.80
2022-11-13T10:21:34.972Z,14.74
2022-11-13T10:24:38.908Z,14.79
2022-11-13T10:27:24.756Z,14.76
2022-11-13T10:30:16.480Z,14.81
2022-11-13T10:33:06.231Z,14.93
2022-11-13T10:36:02.715Z,14.83
2022-11-13T10:38:54.625Z,14.84
2022-11-13T10:41:51.465Z,14.78
2022-11-13T10:44:37.403Z,14.89
2022-11-13T10:47:56.864Z,15.01
2022-11-13T10:50:32.655Z,14.97
2022-11-13T10:53:19.195Z,14.82
2022-11-13T10:56:26.622Z,14.82
2022-11-13T10:59:15.557Z,14.76
2022-11-13T11:02:11.758Z,14.75
2022-11-13T11:05:18.394Z,14.77
2022-11-13T11:08:10.110Z,14.82
2022-11-13T11:11:21.085Z,14.86
2022-11-13T11:14:24.418Z,14.86
2022-11-13T11:17:13.335Z,14.89
2022-11-13T11:20:06.287Z,14.93
2022-11-13T11:23:09.836Z,14.96
2022-11-13T11:26:26.037Z,14.90
2022-11-13T11:29:21.776Z,15.00
2022-11-13T11:32:17.220Z,15.11
2022-11-13T11:35:14.772Z,15.08
2022-11-13T11:38:13.088Z,15.11
2022-11-13T11:41:20.479Z,15.01
2022-11-13T11:44:27.471Z,15.10
2022-11-13T11:47:18.241Z,15.07
2022-11-13T11:50:10.592Z,14.97
2022-11-13T11:53:25.475Z,14.96
2022-11-13T11:56:23.958Z,14.85
2022-11-13T11:59:47.000Z,14.89
2022-11-13T12:02:51.115Z,14.89
2022-11-13T12:06:01.624Z,14.82
2022-11-13T12:09:06.267Z,14.81
2022-11-13T12:12:13.481Z,14.75
2022-11-13T12:15:16.040Z,14.74
2022-11-13T12:18:19.813Z,14.72
2022-11-13T12:21:37.968Z,14.89
2022-11-13T12:24:32.252Z,14.74
2022-11-13T12:27:22.003Z,14.70
2022-11-13T12:30:14.564Z,14.73
2022-11-13T12:33:18.476Z,14.91
2022-11-13T12:36:05.300Z,14.93
2022-11-13T12:39:28.634Z,14.84
2022-11-13T12:42:20.859Z,14.80
2022-11-13T12:45:37.133Z,14.78
2022-11-13T12:48:42.640Z,14.83
2022-11-13T12:51:39.857Z,14.66
2022-11-13T12:54:27.919Z,14.54
2022-11-13T12:57:13.437Z,14.51
2022-11-13T13:00:12.684Z,14.45
2022-11-13T13:03:16.646Z,14.51
2022-11-13T13:06:33.188Z,14.45
2022-11-13T13:09:38.308Z,14.56
2022-11-13T13:12:49.536Z,14.58
2022-11-13T13:15:38.823Z,14.61
2022-11-13T13:18:28.859Z,14.65
2022-11-13T13:21:17.775Z,14.60
2022-11-13T13:24:10.577Z,14.68
2022-11-13T13:26:56.809Z,14.68
2022-11-13T13:29:42.383Z,14.60
2022-11-13T13:32:56.468Z,14.55
2022-11-13T13:36:12.839Z,14.59
2022-11-13T13:39:07.519Z,14.52
2022-11-13T13:42:01.970Z,14.53
2022-11-13T13:44:59.626Z,14.51
2022-11-13T13:47:48.304Z,14.52
2022-11-13T13:50:42.131Z,14.52
2022-11-13T13:53:34.379Z,14.49
2022-11-13T13:56:20.404Z,14.55
2022-11-13T13:59:13.865Z,14.50
2022-11-13T14:02:02.859Z,14.51
2022-11-13T14:04:51.541Z,14.49
2022-11-13T14:07:46.237Z,14.46
2022-11-13T14:10:32.154Z,14.46
2022-11-13T14:13:27.934Z,14.40
2022-11-13T14:16:14.131Z,14.36
2022-11-13T14:19:04.795Z,14.30
2022-11-13T14:21:54.665Z,14.29
2022-11-13T14:24:50.025Z,14.27
2022-11-13T14:27:37.743Z,14.21
2022-11-13T14:30:27.839Z,14.18
2022-11-13T14:33:17.835Z,14.13
2022-11-13T14:36:04.673Z,14.06
2022-11-13T14:38:52.294Z,13.94
2022-11-13T14:41:50.373Z,13.97
2022-11-13T14:44:36.255Z,13.96
2022-11-13T14:47:26.269Z,13.99
2022-11-13T14:50:23.045Z,13.93
2022-11-13T14:53:10.711Z,13.85
2022-11-13T14:56:02.112Z,13.83
2022-11-13T14:58:47.997Z,13.77
2022-11-13T15:01:33.685Z,13.75
2022-11-13T15:04:19.454Z,13.77
2022-11-13T15:07:21.606Z,13.83
2022-11-13T15:10:14.718Z,13.75
2022-11-13T15:13:00.580Z,13.78
2022-11-13T15:15:46.392Z,13.71
2022-11-13T15:18:32.243Z,13.71
2022-11-13T15:21:18.614Z,13.66
2022-11-13T15:24:04.679Z,13.72
2022-11-13T15:26:50.639Z,13.64
2022-11-13T15:29:36.486Z,13.66
2022-11-13T15:32:22.205Z,13.63
2022-11-13T15:35:14.565Z,13.57
2022-11-13T15:38:00.287Z,13.54
2022-11-13T15:40:45.928Z,13.53
2022-11-13T15:43:32.044Z,13.59
2022-11-13T15:46:19.765Z,13.59
2022-11-13T15:49:05.813Z,13.52
2022-11-13T15:51:51.528Z,13.54
2022-11-13T15:54:38.693Z,13.63
2022-11-13T15:57:26.669Z,13.54
2022-11-13T16:00:16.550Z,13.62
2022-11-13T16:03:04.522Z,13.46
2022-11-13T16:05:51.232Z,13.42
2022-11-13T16:08:37.237Z,13.36
2022-11-13T16:11:22.785Z,13.36
2022-11-13T16:14:09.018Z,13.34
2022-11-13T16:16:55.255Z,13.33
2022-11-13T16:19:42.057Z,13.32
2022-11-13T16:22:27.733Z,13.25
2022-11-13T16:25:17.083Z,13.21
2022-11-13T16:28:02.710Z,13.17
2022-11-13T16:30:49.627Z,13.17
2022-11-13T16:33:35.876Z,13.08
2022-11-13T16:36:22.523Z,13.05
2022-11-13T16:39:16.269Z,13.01
2022-11-13T16:42:02.230Z,12.96
2022-11-13T16:44:48.308Z,12.93
2022-11-13T16:47:34.111Z,12.83
2022-11-13T16:50:26.890Z,12.81
2022-11-13T16:53:12.653Z,12.84
2022-11-13T16:55:58.835Z,12.71
2022-11-13T16:58:45.466Z,12.71
2022-11-13T17:01:31.481Z,12.68
2022-11-13T17:04:17.697Z,12.69
2022-11-13T17:07:03.916Z,12.71
2022-11-13T17:10:10.090Z,12.71
2022-11-13T17:12:56.245Z,12.72
2022-11-13T17:15:41.916Z,12.66
2022-11-13T17:18:27.697Z,12.65
2022-11-13T17:21:13.642Z,12.64
2022-11-13T17:24:03.153Z,12.76
2022-11-13T17:26:48.884Z,12.75
2022-11-13T17:29:34.860Z,12.72
2022-11-13T17:32:20.567Z,12.70
2022-11-13T17:35:06.840Z,12.68
2022-11-13T17:37:52.865Z,12.65
2022-11-13T17:40:38.531Z,12.66
2022-11-13T17:43:24.213Z,12.63
2022-11-13T17:46:12.351Z,12.61
2022-11-13T17:48:58.106Z,12.58
2022-11-13T17:51:43.857Z,12.46
2022-11-13T17:54:29.593Z,12.40
2022-11-13T17:57:16.033Z,12.42
2022-11-13T18:00:02.181Z,12.30
2022-11-13T18:02:48.144Z,12.25
2022-11-13T18:05:40.505Z,12.20
2022-11-13T18:08:26.705Z,12.09
2022-11-13T18:11:17.275Z,12.13
2022-11-13T18:14:03.278Z,12.03
2022-11-13T18:16:48.935Z,11.86
2022-11-13T18:19:35.274Z,11.96
2022-11-13T18:22:21.654Z,11.92
2022-11-13T18:25:08.131Z,11.83
2022-11-13T18:27:54.300Z,11.84
2022-11-13T18:30:40.296Z,11.83
2022-11-13T18:33:26.909Z,11.83
2022-11-13T18:36:13.873Z,11.93
2022-11-13T18:39:02.927Z,11.86
2022-11-13T18:41:48.658Z,11.83
2022-11-13T18:44:35.530Z,11.94
2022-11-13T18:47:21.457Z,11.87
2022-11-13T18:50:07.847Z,11.80
2022-11-13T18:52:55.334Z,11.75
2022-11-13T18:55:40.967Z,11.87
2022-11-13T18:58:27.617Z,11.95
2022-11-13T19:01:30.989Z,11.92
2022-11-13T19:04:24.672Z,11.93
2022-11-13T19:07:12.366Z,11.97
2022-11-13T19:09:58.561Z,12.02
2022-11-13T19:12:44.616Z,12.02
2022-11-13T19:15:30.486Z,12.03
2022-11-13T19:18:16.071Z,12.09
2022-11-13T19:21:06.962Z,11.91
2022-11-13T19:23:53.595Z,11.90
2022-11-13T19:26:40.253Z,11.74
2022-11-13T19:29:26.114Z,11.79
2022-11-13T19:32:12.000Z,11.85
2022-11-13T19:34:57.948Z,11.85
2022-11-13T19:37:43.832Z,11.79
2022-11-13T19:40:29.613Z,11.74
2022-11-13T19:43:15.604Z,11.80
2022-11-13T19:46:05.795Z,11.80
2022-11-13T19:48:52.546Z,11.71
2022-11-13T19:51:38.226Z,11.72
2022-11-13T19:54:24.073Z,11.68
2022-11-13T19:57:09.774Z,11.67
2022-11-13T19:59:55.513Z,11.75
2022-11-13T20:02:41.308Z,11.70
2022-11-13T20:05:27.081Z,11.72
2022-11-13T20:08:13.794Z,11.70
2022-11-13T20:11:04.865Z,11.68
2022-11-13T20:13:51.248Z,11.67
2022-11-13T20:16:37.185Z,11.60
2022-11-13T20:19:23.542Z,11.45
2022-11-13T20:22:09.218Z,11.38
2022-11-13T20:24:55.014Z,11.41
2022-11-13T20:27:46.983Z,11.38
2022-11-13T20:30:33.653Z,11.44
2022-11-13T20:33:22.642Z,11.43
2022-11-13T20:36:09.794Z,11.42
2022-11-13T20:38:58.070Z,11.43
2022-11-13T20:41:44.321Z,11.45
2022-11-13T20:44:30.104Z,11.55
2022-11-13T20:47:15.950Z,11.50
2022-11-13T20:50:01.549Z,11.44
2022-11-13T20:52:47.217Z,11.43
2022-11-13T20:55:34.143Z,11.41
2022-11-13T20:58:20.433Z,11.38
2022-11-13T21:01:26.125Z,11.43
2022-11-13T21:04:12.187Z,11.39
2022-11-13T21:06:57.896Z,11.36
2022-11-13T21:09:48.820Z,11.52
2022-11-13T21:12:36.440Z,11.54
2022-11-13T21:15:22.090Z,11.37
2022-11-13T21:18:07.905Z,11.40
2022-11-13T21:20:53.767Z,11.30
2022-11-13T21:23:40.059Z,11.38
2022-11-13T21:26:26.184Z,11.45
2022-11-13T21:29:12.156Z,11.40
2022-11-13T21:31:58.122Z,11.45
2022-11-13T21:34:43.691Z,11.39
2022-11-13T21:37:31.795Z,11.39
2022-11-13T21:40:17.524Z,11.56
2022-11-13T21:43:03.532Z,11.38
2022-11-13T21:45:49.649Z,11.45
2022-11-13T21:48:35.999Z,11.55
2022-11-13T21:51:22.217Z,11.69
2022-11-13T21:54:08.959Z,11.49
2022-11-13T21:56:54.906Z,11.57
2022-11-13T21:59:40.774Z,11.56
2022-11-13T22:02:26.848Z,11.63
2022-11-13T22:05:12.887Z,11.53
2022-11-13T22:07:59.001Z,11.51
2022-11-13T22:10:44.760Z,11.47
2022-11-13T22:13:31.138Z,11.57
2022-11-13T22:16:17.662Z,11.39
2022-11-13T22:19:07.378Z,11.34
2022-11-13T22:21:54.132Z,11.26
2022-11-13T22:24:40.015Z,11.13
2022-11-13T22:27:25.930Z,11.13
2022-11-13T22:30:12.087Z,11.14
2022-11-13T22:32:58.402Z,11.10
2022-11-13T22:35:44.277Z,11.15
2022-11-13T22:38:30.846Z,11.10
2022-11-13T22:41:22.842Z,11.09
2022-11-13T22:44:13.241Z,11.01
2022-11-13T22:46:59.524Z,11.01
2022-11-13T22:49:45.384Z,10.96
2022-11-13T22:52:31.397Z,10.96
2022-11-13T22:55:17.368Z,11.12
2022-11-13T22:58:03.048Z,11.05
2022-11-13T23:00:49.106Z,11.06
2022-11-13T23:03:40.985Z,11.07
2022-11-13T23:06:29.054Z,11.20
2022-11-13T23:09:15.024Z,11.03
2022-11-13T23:12:00.973Z,10.96
2022-11-13T23:14:46.892Z,10.84
2022-11-13T23:17:32.668Z,10.83
2022-11-13T23:20:18.582Z,10.72
2022-11-13T23:23:04.537Z,10.65
2022-11-13T23:25:51.024Z,10.51
2022-11-13T23:28:37.605Z,10.50
2022-11-13T23:31:24.617Z,10.53
2022-11-13T23:34:10.556Z,10.51
2022-11-13T23:36:56.120Z,10.56
2022-11-13T23:39:42.012Z,10.51
2022-11-13T23:42:45.700Z,10.42
2022-11-13T23:45:34.098Z,10.42
2022-11-13T23:48:20.169Z,10.42
2022-11-13T23:51:06.488Z,10.44
2022-11-13T23:53:52.149Z,10.50
2022-11-13T23:56:38.068Z,10.47
2022-11-13T23:59:23.831Z,10.55
